sensor_id;sensor_type;location;lat;lon;timestamp;pressure;altitude;pressure_sealevel;temperature;humidity
47374;BME280;33123;50.118;10.272;2023-01-25T00:01:58;99452.09;;;2.60;71.22
47374;BME280;33123;50.118;10.272;2023-01-25T00:04:25;99447.84;;;2.59;71.08
47374;BME280;33123;50.118;10.272;2023-01-25T00:06:52;99440.72;;;2.61;71.74
47374;BME280;33123;50.118;10.272;2023-01-25T00:09:21;99438.78;;;2.63;71.85
47374;BME280;33123;50.118;10.272;2023-01-25T00:11:48;99433.28;;;2.67;71.65
47374;BME280;33123;50.118;10.272;2023-01-25T00:14:15;99438.50;;;2.67;71.40
47374;BME280;33123;50.118;10.272;2023-01-25T00:16:43;99431.00;;;2.72;71.46
47374;BME280;33123;50.118;10.272;2023-01-25T00:19:10;99432.66;;;2.73;71.23
47374;BME280;33123;50.118;10.272;2023-01-25T00:21:37;99425.66;;;2.73;71.16
47374;BME280;33123;50.118;10.272;2023-01-25T00:24:05;99425.22;;;2.78;71.39
47374;BME280;33123;50.118;10.272;2023-01-25T00:26:32;99429.28;;;2.80;71.05
47374;BME280;33123;50.118;10.272;2023-01-25T00:28:59;99417.25;;;2.79;71.07
47374;BME280;33123;50.118;10.272;2023-01-25T00:31:36;99416.72;;;2.76;70.89
47374;BME280;33123;50.118;10.272;2023-01-25T00:36:57;99385.38;;;2.59;70.69
47374;BME280;33123;50.118;10.272;2023-01-25T00:39:27;99419.41;;;2.84;70.88
47374;BME280;33123;50.118;10.272;2023-01-25T00:41:54;99421.66;;;2.87;70.78
47374;BME280;33123;50.118;10.272;2023-01-25T00:44:22;99417.78;;;2.91;70.98
47374;BME280;33123;50.118;10.272;2023-01-25T00:46:48;99411.63;;;2.92;70.88
47374;BME280;33123;50.118;10.272;2023-01-25T00:49:19;99413.56;;;2.90;70.80
47374;BME280;33123;50.118;10.272;2023-01-25T00:51:46;99408.84;;;2.94;70.55
47374;BME280;33123;50.118;10.272;2023-01-25T00:54:13;99408.84;;;2.94;70.68
47374;BME280;33123;50.118;10.272;2023-01-25T00:56:40;99411.97;;;2.97;70.39
47374;BME280;33123;50.118;10.272;2023-01-25T00:59:06;99399.06;;;2.87;70.60
47374;BME280;33123;50.118;10.272;2023-01-25T01:01:33;99411.09;;;2.88;70.46
47374;BME280;33123;50.118;10.272;2023-01-25T01:04:00;99415.19;;;2.91;70.45
47374;BME280;33123;50.118;10.272;2023-01-25T01:06:28;99413.56;;;2.90;70.82
47374;BME280;33123;50.118;10.272;2023-01-25T01:08:54;99406.72;;;2.89;70.54
47374;BME280;33123;50.118;10.272;2023-01-25T01:11:21;99404.59;;;2.84;70.50
47374;BME280;33123;50.118;10.272;2023-01-25T01:13:47;99406.06;;;2.87;70.80
47374;BME280;33123;50.118;10.272;2023-01-25T01:16:14;99402.63;;;2.86;70.55
47374;BME280;33123;50.118;10.272;2023-01-25T01:18:43;99405.69;;;2.82;71.14
47374;BME280;33123;50.118;10.272;2023-01-25T01:21:10;99407.31;;;2.83;70.92
47374;BME280;33123;50.118;10.272;2023-01-25T01:23:38;99401.28;;;2.82;70.73
47374;BME280;33123;50.118;10.272;2023-01-25T01:26:07;99402.09;;;2.83;70.80
47374;BME280;33123;50.118;10.272;2023-01-25T01:28:35;99401.09;;;2.76;70.31
47374;BME280;33123;50.118;10.272;2023-01-25T01:31:04;99397.69;;;2.75;70.79
47374;BME280;33123;50.118;10.272;2023-01-25T01:33:31;99401.09;;;2.76;70.90
47374;BME280;33123;50.118;10.272;2023-01-25T01:35:58;99403.22;;;2.72;70.62
47374;BME280;33123;50.118;10.272;2023-01-25T01:38:25;99406.88;;;2.61;70.94
47374;BME280;33123;50.118;10.272;2023-01-25T01:40:52;99394.22;;;2.67;70.58
47374;BME280;33123;50.118;10.272;2023-01-25T01:43:21;99391.47;;;2.68;70.83
47374;BME280;33123;50.118;10.272;2023-01-25T01:45:53;99390.59;;;2.59;70.94
47374;BME280;33123;50.118;10.272;2023-01-25T01:48:28;99353.19;;;2.34;70.78
47374;BME280;33123;50.118;10.272;2023-01-25T01:50:59;99397.78;;;2.65;70.60
47374;BME280;33123;50.118;10.272;2023-01-25T01:53:27;99394.16;;;2.58;70.55
47374;BME280;33123;50.118;10.272;2023-01-25T01:55:59;99394.69;;;2.62;70.84
47374;BME280;33123;50.118;10.272;2023-01-25T01:58:28;99398.75;;;2.64;70.91
47374;BME280;33123;50.118;10.272;2023-01-25T02:00:57;99392.22;;;2.60;70.85
47374;BME280;33123;50.118;10.272;2023-01-25T02:03:24;99386.72;;;2.63;70.79
47374;BME280;33123;50.118;10.272;2023-01-25T02:05:55;99385.59;;;2.66;70.52
47374;BME280;33123;50.118;10.272;2023-01-25T02:08:23;99386.44;;;2.67;70.96
47374;BME280;33123;50.118;10.272;2023-01-25T02:10:51;99386.44;;;2.67;70.67
47374;BME280;33123;50.118;10.272;2023-01-25T02:13:20;99388.19;;;2.66;71.00
47374;BME280;33123;50.118;10.272;2023-01-25T02:15:49;99381.50;;;2.63;71.04
47374;BME280;33123;50.118;10.272;2023-01-25T02:18:17;99382.84;;;2.68;71.28
47374;BME280;33123;50.118;10.272;2023-01-25T02:20:46;99362.56;;;2.53;71.08
47374;BME280;33123;50.118;10.272;2023-01-25T02:23:24;99382.31;;;2.64;70.90
47374;BME280;33123;50.118;10.272;2023-01-25T02:25:56;99383.56;;;2.52;70.74
47374;BME280;33123;50.118;10.272;2023-01-25T02:28:28;99312.00;;;2.04;70.98
47374;BME280;33123;50.118;10.272;2023-01-25T02:30:55;99368.34;;;2.39;71.28
47374;BME280;33123;50.118;10.272;2023-01-25T02:33:22;99379.09;;;2.44;71.41
47374;BME280;33123;50.118;10.272;2023-01-25T02:35:52;99365.03;;;2.29;71.23
47374;BME280;33123;50.118;10.272;2023-01-25T02:38:20;99376.16;;;2.39;71.62
47374;BME280;33123;50.118;10.272;2023-01-25T02:40:49;99374.50;;;2.38;71.08
47374;BME280;33123;50.118;10.272;2023-01-25T02:43:19;99372.59;;;2.40;71.10
47374;BME280;33123;50.118;10.272;2023-01-25T02:45:49;99370.59;;;2.34;71.08
47374;BME280;33123;50.118;10.272;2023-01-25T02:48:17;99370.78;;;2.41;70.99
47374;BME280;33123;50.118;10.272;2023-01-25T02:50:44;99379.09;;;2.44;71.13
47374;BME280;33123;50.118;10.272;2023-01-25T02:53:11;99370.09;;;2.38;70.79
47374;BME280;33123;50.118;10.272;2023-01-25T02:55:37;99372.94;;;2.45;71.25
47374;BME280;33123;50.118;10.272;2023-01-25T02:58:04;99363.63;;;2.43;70.48
47374;BME280;33123;50.118;10.272;2023-01-25T03:00:32;99358.97;;;2.46;71.07
47374;BME280;33123;50.118;10.272;2023-01-25T03:02:58;99365.78;;;2.47;71.08
47374;BME280;33123;50.118;10.272;2023-01-25T03:05:25;99369.56;;;2.53;71.14
47374;BME280;33123;50.118;10.272;2023-01-25T03:07:51;99366.00;;;2.54;70.98
47374;BME280;33123;50.118;10.272;2023-01-25T03:10:18;99367.31;;;2.58;71.05
47374;BME280;33123;50.118;10.272;2023-01-25T03:12:45;99367.50;;;2.56;70.70
47374;BME280;33123;50.118;10.272;2023-01-25T03:15:11;99366.59;;;2.48;70.38
47374;BME280;33123;50.118;10.272;2023-01-25T03:17:39;99368.75;;;2.52;70.57
47374;BME280;33123;50.118;10.272;2023-01-25T03:20:06;99363.72;;;2.51;70.86
47374;BME280;33123;50.118;10.272;2023-01-25T03:22:33;99359.56;;;2.40;70.61
47374;BME280;33123;50.118;10.272;2023-01-25T03:25:00;99356.16;;;2.40;70.32
47374;BME280;33123;50.118;10.272;2023-01-25T03:27:28;99353.22;;;2.43;71.15
47374;BME280;33123;50.118;10.272;2023-01-25T03:29:54;99345.59;;;2.41;70.78
47374;BME280;33123;50.118;10.272;2023-01-25T03:32:21;99342.81;;;2.43;70.40
47374;BME280;33123;50.118;10.272;2023-01-25T03:34:49;99332.06;;;2.37;71.08
47374;BME280;33123;50.118;10.272;2023-01-25T03:37:16;99326.63;;;2.23;70.83
47374;BME280;33123;50.118;10.272;2023-01-25T03:39:42;99330.16;;;2.22;70.86
47374;BME280;33123;50.118;10.272;2023-01-25T03:42:09;99334.25;;;2.24;70.93
47374;BME280;33123;50.118;10.272;2023-01-25T03:44:35;99325.19;;;2.28;70.92
47374;BME280;33123;50.118;10.272;2023-01-25T03:47:02;99334.09;;;2.26;71.21
47374;BME280;33123;50.118;10.272;2023-01-25T03:49:29;99334.78;;;2.28;70.91
47374;BME280;33123;50.118;10.272;2023-01-25T03:51:57;99328.69;;;2.19;71.51
47374;BME280;33123;50.118;10.272;2023-01-25T03:54:23;99333.81;;;2.29;71.03
47374;BME280;33123;50.118;10.272;2023-01-25T03:56:50;99332.50;;;2.33;71.05
47374;BME280;33123;50.118;10.272;2023-01-25T03:59:16;99323.75;;;2.34;70.73
47374;BME280;33123;50.118;10.272;2023-01-25T04:01:43;99321.81;;;2.36;70.53
47374;BME280;33123;50.118;10.272;2023-01-25T04:04:10;99330.59;;;2.35;70.62
47374;BME280;33123;50.118;10.272;2023-01-25T04:06:36;99331.69;;;2.32;70.59
47374;BME280;33123;50.118;10.272;2023-01-25T04:09:05;99326.00;;;2.29;70.80
47374;BME280;33123;50.118;10.272;2023-01-25T04:11:31;99321.91;;;2.26;70.78
47374;BME280;33123;50.118;10.272;2023-01-25T04:13:58;99314.25;;;2.25;70.80
47374;BME280;33123;50.118;10.272;2023-01-25T04:16:25;99312.31;;;2.27;70.92
47374;BME280;33123;50.118;10.272;2023-01-25T04:18:54;99314.78;;;2.28;71.41
47374;BME280;33123;50.118;10.272;2023-01-25T04:21:21;99308.44;;;2.31;71.29
47374;BME280;33123;50.118;10.272;2023-01-25T04:23:48;99304.06;;;2.31;71.17
47374;BME280;33123;50.118;10.272;2023-01-25T04:26:16;99299.38;;;2.35;71.21
47374;BME280;33123;50.118;10.272;2023-01-25T04:28:43;99294.00;;;2.36;71.54
47374;BME280;33123;50.118;10.272;2023-01-25T04:31:09;99285.09;;;2.39;71.39
47374;BME280;33123;50.118;10.272;2023-01-25T04:33:36;99294.34;;;2.42;71.38
47374;BME280;33123;50.118;10.272;2023-01-25T04:36:03;99291.09;;;2.40;70.79
47374;BME280;33123;50.118;10.272;2023-01-25T04:38:30;99289.16;;;2.42;70.73
47374;BME280;33123;50.118;10.272;2023-01-25T04:40:56;99296.81;;;2.43;70.62
47374;BME280;33123;50.118;10.272;2023-01-25T04:43:24;99291.59;;;2.43;71.11
47374;BME280;33123;50.118;10.272;2023-01-25T04:45:51;99290.31;;;2.47;70.59
47374;BME280;33123;50.118;10.272;2023-01-25T04:48:18;99285.13;;;2.47;70.59
47374;BME280;33123;50.118;10.272;2023-01-25T04:50:44;99290.03;;;2.50;70.72
47374;BME280;33123;50.118;10.272;2023-01-25T04:53:11;99285.56;;;2.43;70.99
47374;BME280;33123;50.118;10.272;2023-01-25T04:55:38;99285.28;;;2.46;70.57
47374;BME280;33123;50.118;10.272;2023-01-25T04:58:05;99279.41;;;2.44;70.55
47374;BME280;33123;50.118;10.272;2023-01-25T05:00:33;99269.81;;;2.44;70.56
47374;BME280;33123;50.118;10.272;2023-01-25T05:02:59;99273.25;;;2.45;70.86
47374;BME280;33123;50.118;10.272;2023-01-25T05:05:26;99273.03;;;2.38;70.74
47374;BME280;33123;50.118;10.272;2023-01-25T05:07:53;99275.28;;;2.33;70.92
47374;BME280;33123;50.118;10.272;2023-01-25T05:10:19;99280.47;;;2.33;70.52
47374;BME280;33123;50.118;10.272;2023-01-25T05:12:46;99271.72;;;2.34;71.12
47374;BME280;33123;50.118;10.272;2023-01-25T05:15:13;99270.75;;;2.35;70.63
47374;BME280;33123;50.118;10.272;2023-01-25T05:17:41;99262.13;;;2.34;71.05
47374;BME280;33123;50.118;10.272;2023-01-25T05:20:09;99260.63;;;2.32;70.78
47374;BME280;33123;50.118;10.272;2023-01-25T05:22:36;99264.56;;;2.36;71.02
47374;BME280;33123;50.118;10.272;2023-01-25T05:25:03;99255.31;;;2.33;71.18
47374;BME280;33123;50.118;10.272;2023-01-25T05:27:30;99258.41;;;2.37;71.34
47374;BME280;33123;50.118;10.272;2023-01-25T05:29:56;99252.72;;;2.42;71.41
47374;BME280;33123;50.118;10.272;2023-01-25T05:32:23;99245.56;;;2.44;71.48
47374;BME280;33123;50.118;10.272;2023-01-25T05:34:51;99254.53;;;2.49;71.03
47374;BME280;33123;50.118;10.272;2023-01-25T05:37:19;99244.66;;;2.53;70.69
47374;BME280;33123;50.118;10.272;2023-01-25T05:39:46;99248.22;;;2.52;70.48
47374;BME280;33123;50.118;10.272;2023-01-25T05:42:14;99253.44;;;2.52;70.39
47374;BME280;33123;50.118;10.272;2023-01-25T05:44:41;99255.69;;;2.47;70.72
47374;BME280;33123;50.118;10.272;2023-01-25T05:47:11;99249.97;;;2.43;70.58
47374;BME280;33123;50.118;10.272;2023-01-25T05:49:38;99251.41;;;2.37;70.98
47374;BME280;33123;50.118;10.272;2023-01-25T05:52:06;99248.97;;;2.36;70.97
47374;BME280;33123;50.118;10.272;2023-01-25T05:54:32;99248.97;;;2.36;71.26
47374;BME280;33123;50.118;10.272;2023-01-25T05:56:59;99239.19;;;2.30;71.59
47374;BME280;33123;50.118;10.272;2023-01-25T05:59:26;99257.94;;;2.42;71.33
47374;BME280;33123;50.118;10.272;2023-01-25T06:01:53;99250.66;;;2.45;71.26
47374;BME280;33123;50.118;10.272;2023-01-25T06:04:20;99249.50;;;2.48;71.42
47374;BME280;33123;50.118;10.272;2023-01-25T06:06:46;99239.91;;;2.48;71.31
47374;BME280;33123;50.118;10.272;2023-01-25T06:09:15;99240.06;;;2.47;70.52
47374;BME280;33123;50.118;10.272;2023-01-25T06:11:42;99240.06;;;2.47;70.92
47374;BME280;33123;50.118;10.272;2023-01-25T06:14:10;99242.84;;;2.45;70.54
47374;BME280;33123;50.118;10.272;2023-01-25T06:16:37;99240.88;;;2.47;70.73
47374;BME280;33123;50.118;10.272;2023-01-25T06:19:04;99240.88;;;2.47;71.08
47374;BME280;33123;50.118;10.272;2023-01-25T06:21:31;99244.13;;;2.49;71.02
47374;BME280;33123;50.118;10.272;2023-01-25T06:23:59;99240.53;;;2.42;71.17
47374;BME280;33123;50.118;10.272;2023-01-25T06:26:27;99244.75;;;2.43;71.18
47374;BME280;33123;50.118;10.272;2023-01-25T06:28:54;99246.72;;;2.41;71.07
47374;BME280;33123;50.118;10.272;2023-01-25T06:31:20;99241.81;;;2.38;71.11
47374;BME280;33123;50.118;10.272;2023-01-25T06:33:48;99241.81;;;2.38;70.79
47374;BME280;33123;50.118;10.272;2023-01-25T06:36:17;99246.34;;;2.36;71.36
47374;BME280;33123;50.118;10.272;2023-01-25T06:38:47;99245.19;;;2.30;71.17
47374;BME280;33123;50.118;10.272;2023-01-25T06:41:14;99243.84;;;2.18;71.29
47374;BME280;33123;50.118;10.272;2023-01-25T06:43:42;99238.19;;;2.23;71.22
47374;BME280;33123;50.118;10.272;2023-01-25T06:46:09;99238.81;;;2.25;71.54
47374;BME280;33123;50.118;10.272;2023-01-25T06:48:37;99248.25;;;2.26;71.81
47374;BME280;33123;50.118;10.272;2023-01-25T06:51:06;99241.78;;;2.30;72.09
47374;BME280;33123;50.118;10.272;2023-01-25T06:53:35;99194.81;;;2.05;72.09
47374;BME280;33123;50.118;10.272;2023-01-25T06:56:04;99245.38;;;2.37;72.04
47374;BME280;33123;50.118;10.272;2023-01-25T06:58:32;99240.84;;;2.39;71.41
47374;BME280;33123;50.118;10.272;2023-01-25T07:01:02;99244.75;;;2.43;71.83
47374;BME280;33123;50.118;10.272;2023-01-25T07:03:29;99244.47;;;2.46;71.76
47374;BME280;33123;50.118;10.272;2023-01-25T07:05:57;99236.50;;;2.48;71.97
47374;BME280;33123;50.118;10.272;2023-01-25T07:08:24;99230.31;;;2.49;71.58
47374;BME280;33123;50.118;10.272;2023-01-25T07:10:54;99229.66;;;2.47;71.27
47374;BME280;33123;50.118;10.272;2023-01-25T07:13:21;99230.63;;;2.46;71.29
47374;BME280;33123;50.118;10.272;2023-01-25T07:15:52;99233.72;;;2.49;71.41
47374;BME280;33123;50.118;10.272;2023-01-25T07:18:20;99235.38;;;2.50;71.42
47374;BME280;33123;50.118;10.272;2023-01-25T07:20:47;99164.28;;;2.07;71.76
47374;BME280;33123;50.118;10.272;2023-01-25T07:23:14;99229.69;;;2.55;71.52
47374;BME280;33123;50.118;10.272;2023-01-25T07:25:43;99231.47;;;2.54;71.22
47374;BME280;33123;50.118;10.272;2023-01-25T07:28:09;99241.59;;;2.57;71.37
47374;BME280;33123;50.118;10.272;2023-01-25T07:30:36;99231.81;;;2.59;71.27
47374;BME280;33123;50.118;10.272;2023-01-25T07:33:02;99230.84;;;2.60;71.58
47374;BME280;33123;50.118;10.272;2023-01-25T07:35:31;99237.03;;;2.59;71.41
47374;BME280;33123;50.118;10.272;2023-01-25T07:37:57;99230.03;;;2.60;71.48
47374;BME280;33123;50.118;10.272;2023-01-25T07:40:24;99236.88;;;2.61;71.30
47374;BME280;33123;50.118;10.272;2023-01-25T07:42:51;99227.28;;;2.61;71.35
47374;BME280;33123;50.118;10.272;2023-01-25T07:45:18;99232.50;;;2.61;71.40
47374;BME280;33123;50.118;10.272;2023-01-25T07:47:45;99230.53;;;2.63;71.34
47374;BME280;33123;50.118;10.272;2023-01-25T07:50:12;99231.88;;;2.68;71.50
47374;BME280;33123;50.118;10.272;2023-01-25T07:52:40;99224.53;;;2.71;71.24
47374;BME280;33123;50.118;10.272;2023-01-25T07:55:08;99219.19;;;2.73;71.45
47374;BME280;33123;50.118;10.272;2023-01-25T08:01:17;99226.31;;;2.71;71.38
47374;BME280;33123;50.118;10.272;2023-01-25T08:03:44;99224.06;;;2.76;71.15
47374;BME280;33123;50.118;10.272;2023-01-25T08:06:11;99198.66;;;2.61;72.08
47374;BME280;33123;50.118;10.272;2023-01-25T08:08:42;99221.81;;;2.81;71.71
47374;BME280;33123;50.118;10.272;2023-01-25T08:11:12;99219.03;;;2.82;71.50
47374;BME280;33123;50.118;10.272;2023-01-25T08:13:39;99190.69;;;2.71;71.42
47374;BME280;33123;50.118;10.272;2023-01-25T08:16:06;99218.56;;;2.87;71.57
47374;BME280;33123;50.118;10.272;2023-01-25T08:18:32;99214.03;;;2.89;71.39
47374;BME280;33123;50.118;10.272;2023-01-25T08:20:59;99208.50;;;2.92;71.22
47374;BME280;33123;50.118;10.272;2023-01-25T08:23:26;99214.50;;;2.92;71.03
47374;BME280;33123;50.118;10.272;2023-01-25T08:25:55;99215.31;;;2.93;71.26
47374;BME280;33123;50.118;10.272;2023-01-25T08:28:21;99207.19;;;2.96;71.12
47374;BME280;33123;50.118;10.272;2023-01-25T08:30:48;99212.41;;;2.96;70.90
47374;BME280;33123;50.118;10.272;2023-01-25T08:33:14;99213.06;;;2.98;70.83
47374;BME280;33123;50.118;10.272;2023-01-25T08:35:41;99211.44;;;2.97;70.59
47374;BME280;33123;50.118;10.272;2023-01-25T08:38:07;99212.06;;;2.99;71.04
47374;BME280;33123;50.118;10.272;2023-01-25T08:40:34;99204.94;;;3.01;71.06
47374;BME280;33123;50.118;10.272;2023-01-25T08:43:02;99205.75;;;3.02;71.20
47374;BME280;33123;50.118;10.272;2023-01-25T08:45:29;99201.34;;;3.02;70.81
47374;BME280;33123;50.118;10.272;2023-01-25T08:47:58;99204.47;;;3.06;71.23
47374;BME280;33123;50.118;10.272;2023-01-25T08:50:25;99201.69;;;3.07;70.77
47374;BME280;33123;50.118;10.272;2023-01-25T08:52:51;99203.16;;;3.10;70.18
47374;BME280;33123;50.118;10.272;2023-01-25T08:55:18;99202.16;;;3.11;70.48
47374;BME280;33123;50.118;10.272;2023-01-25T08:57:45;99189.97;;;3.11;70.37
47374;BME280;33123;50.118;10.272;2023-01-25T09:00:14;99189.97;;;3.11;70.62
47374;BME280;33123;50.118;10.272;2023-01-25T09:02:41;99192.09;;;3.08;70.15
47374;BME280;33123;50.118;10.272;2023-01-25T09:05:08;99193.88;;;3.07;70.34
47374;BME280;33123;50.118;10.272;2023-01-25T09:07:35;99188.34;;;3.02;70.60
47374;BME280;33123;50.118;10.272;2023-01-25T09:10:03;99188.00;;;3.05;70.86
47374;BME280;33123;50.118;10.272;2023-01-25T09:12:33;99172.38;;;3.05;70.81
47374;BME280;33123;50.118;10.272;2023-01-25T09:14:59;99172.88;;;3.09;70.68
47374;BME280;33123;50.118;10.272;2023-01-25T09:17:27;99172.38;;;3.13;70.10
47374;BME280;33123;50.118;10.272;2023-01-25T09:19:54;99174.69;;;3.16;70.34
47374;BME280;33123;50.118;10.272;2023-01-25T09:22:20;99173.69;;;3.17;69.86
47374;BME280;33123;50.118;10.272;2023-01-25T09:24:47;99183.13;;;3.18;69.90
47374;BME280;33123;50.118;10.272;2023-01-25T09:27:16;99174.34;;;3.20;70.72
47374;BME280;33123;50.118;10.272;2023-01-25T09:29:43;99176.63;;;3.23;70.19
47374;BME280;33123;50.118;10.272;2023-01-25T09:32:09;99175.66;;;3.24;69.95
47374;BME280;33123;50.118;10.272;2023-01-25T09:34:37;99178.91;;;3.26;70.23
47374;BME280;33123;50.118;10.272;2023-01-25T09:37:04;99172.06;;;3.25;69.52
47374;BME280;33123;50.118;10.272;2023-01-25T09:39:30;99182.31;;;3.26;69.33
47374;BME280;33123;50.118;10.272;2023-01-25T09:42:23;99173.38;;;3.29;69.65
47374;BME280;33123;50.118;10.272;2023-01-25T09:45:16;99175.81;;;3.30;69.88
47374;BME280;33123;50.118;10.272;2023-01-25T09:47:50;99174.66;;;3.33;69.53
47374;BME280;33123;50.118;10.272;2023-01-25T09:50:31;99170.75;;;3.37;69.93
47374;BME280;33123;50.118;10.272;2023-01-25T09:53:12;99177.28;;;3.41;69.49
47374;BME280;33123;50.118;10.272;2023-01-25T09:55:41;99177.91;;;3.43;69.28
47374;BME280;33123;50.118;10.272;2023-01-25T09:58:12;99174.69;;;3.41;69.27
47374;BME280;33123;50.118;10.272;2023-01-25T10:00:41;99174.69;;;3.41;68.42
47374;BME280;33123;50.118;10.272;2023-01-25T10:03:14;99173.38;;;3.37;68.93
47374;BME280;33123;50.118;10.272;2023-01-25T10:05:46;99163.94;;;3.36;68.65
47374;BME280;33123;50.118;10.272;2023-01-25T10:08:17;99166.53;;;3.28;69.18
47374;BME280;33123;50.118;10.272;2023-01-25T10:10:49;99166.53;;;3.28;69.40
47374;BME280;33123;50.118;10.272;2023-01-25T10:13:22;99165.41;;;3.30;69.64
47374;BME280;33123;50.118;10.272;2023-01-25T10:15:52;99166.19;;;3.31;69.31
47374;BME280;33123;50.118;10.272;2023-01-25T10:18:29;99166.03;;;3.32;69.63
47374;BME280;33123;50.118;10.272;2023-01-25T10:21:02;99167.16;;;3.38;69.10
47374;BME280;33123;50.118;10.272;2023-01-25T10:23:52;99158.41;;;3.39;68.33
47374;BME280;33123;50.118;10.272;2023-01-25T10:26:27;99161.34;;;3.28;67.62
47374;BME280;33123;50.118;10.272;2023-01-25T10:29:00;99143.09;;;3.20;67.49
47374;BME280;33123;50.118;10.272;2023-01-25T10:31:33;99135.44;;;3.02;67.56
47374;BME280;33123;50.118;10.272;2023-01-25T10:34:14;99141.28;;;2.96;68.07
47374;BME280;33123;50.118;10.272;2023-01-25T10:36:45;99129.41;;;2.85;68.44
47374;BME280;33123;50.118;10.272;2023-01-25T10:39:14;99130.03;;;2.87;68.92
47374;BME280;33123;50.118;10.272;2023-01-25T10:41:44;99092.25;;;2.58;69.15
47374;BME280;33123;50.118;10.272;2023-01-25T10:44:12;99123.50;;;2.83;69.00
47374;BME280;33123;50.118;10.272;2023-01-25T10:46:56;99115.06;;;2.81;69.18
47374;BME280;33123;50.118;10.272;2023-01-25T10:49:28;99113.59;;;2.86;69.09
47374;BME280;33123;50.118;10.272;2023-01-25T10:52:11;99102.38;;;2.86;69.18
47374;BME280;33123;50.118;10.272;2023-01-25T10:54:39;99106.75;;;2.94;68.86
47374;BME280;33123;50.118;10.272;2023-01-25T10:57:07;99101.06;;;2.98;68.66
47374;BME280;33123;50.118;10.272;2023-01-25T10:59:35;99099.59;;;3.04;68.42
47374;BME280;33123;50.118;10.272;2023-01-25T11:02:20;99097.16;;;3.10;68.71
47374;BME280;33123;50.118;10.272;2023-01-25T11:04:57;99092.94;;;3.17;68.53
47374;BME280;33123;50.118;10.272;2023-01-25T11:07:26;99093.91;;;3.25;68.10
47374;BME280;33123;50.118;10.272;2023-01-25T11:09:55;99082.31;;;3.27;67.69
47374;BME280;33123;50.118;10.272;2023-01-25T11:12:22;99091.28;;;3.33;67.09
47374;BME280;33123;50.118;10.272;2023-01-25T11:14:49;99080.84;;;3.33;67.60
47374;BME280;33123;50.118;10.272;2023-01-25T11:17:22;99078.56;;;3.38;67.75
47374;BME280;33123;50.118;10.272;2023-01-25T11:20:14;99068.81;;;3.40;67.83
47374;BME280;33123;50.118;10.272;2023-01-25T11:22:50;99068.94;;;3.47;67.50
47374;BME280;33123;50.118;10.272;2023-01-25T11:25:29;99070.75;;;3.46;67.30
47374;BME280;33123;50.118;10.272;2023-01-25T11:28:13;99061.66;;;3.34;67.28
47374;BME280;33123;50.118;10.272;2023-01-25T11:30:41;99057.09;;;3.36;67.17
47374;BME280;33123;50.118;10.272;2023-01-25T11:33:09;99059.69;;;3.36;67.11
47374;BME280;33123;50.118;10.272;2023-01-25T11:35:42;99041.47;;;3.28;67.19
47374;BME280;33123;50.118;10.272;2023-01-25T11:38:17;99051.56;;;3.31;67.40
47374;BME280;33123;50.118;10.272;2023-01-25T11:40:48;99037.72;;;3.30;67.04
47374;BME280;33123;50.118;10.272;2023-01-25T11:43:26;99032.50;;;3.30;67.12
47374;BME280;33123;50.118;10.272;2023-01-25T11:46:08;99017.69;;;3.31;67.24
47374;BME280;33123;50.118;10.272;2023-01-25T11:48:51;99022.56;;;3.26;67.29
47374;BME280;33123;50.118;10.272;2023-01-25T11:51:24;99012.16;;;3.26;67.61
47374;BME280;33123;50.118;10.272;2023-01-25T11:54:19;99012.66;;;3.29;67.65
47374;BME280;33123;50.118;10.272;2023-01-25T11:56:56;99002.69;;;3.33;67.98
47374;BME280;33123;50.118;10.272;2023-01-25T11:59:33;98996.66;;;3.40;67.36
47374;BME280;33123;50.118;10.272;2023-01-25T12:05:31;98979.50;;;3.54;67.65
47374;BME280;33123;50.118;10.272;2023-01-25T12:08:17;98979.47;;;3.62;67.66
47374;BME280;33123;50.118;10.272;2023-01-25T12:10:54;98978.16;;;3.66;67.40
47374;BME280;33123;50.118;10.272;2023-01-25T12:13:32;98967.38;;;3.69;66.36
47374;BME280;33123;50.118;10.272;2023-01-25T12:16:10;98964.59;;;3.71;66.72
47374;BME280;33123;50.118;10.272;2023-01-25T12:18:54;98954.00;;;3.73;66.90
47374;BME280;33123;50.118;10.272;2023-01-25T12:21:39;98953.81;;;3.74;67.04
47374;BME280;33123;50.118;10.272;2023-01-25T12:24:16;98944.22;;;3.75;67.32
47374;BME280;33123;50.118;10.272;2023-01-25T12:26:55;98939.63;;;3.77;67.07
47374;BME280;33123;50.118;10.272;2023-01-25T12:29:31;98937.81;;;3.77;67.62
47374;BME280;33123;50.118;10.272;2023-01-25T12:32:03;98930.66;;;3.79;67.46
47374;BME280;33123;50.118;10.272;2023-01-25T12:34:34;98932.09;;;3.82;67.43
47374;BME280;33123;50.118;10.272;2023-01-25T12:37:05;98917.25;;;3.82;67.04
47374;BME280;33123;50.118;10.272;2023-01-25T12:39:40;98916.75;;;3.87;67.15
47374;BME280;33123;50.118;10.272;2023-01-25T12:42:16;98906.31;;;3.87;67.58
47374;BME280;33123;50.118;10.272;2023-01-25T12:44:48;98915.25;;;3.92;66.88
47374;BME280;33123;50.118;10.272;2023-01-25T12:47:19;98900.25;;;3.94;66.31
47374;BME280;33123;50.118;10.272;2023-01-25T12:49:49;98894.19;;;3.94;66.09
47374;BME280;33123;50.118;10.272;2023-01-25T12:52:22;98887.88;;;3.88;66.12
47374;BME280;33123;50.118;10.272;2023-01-25T12:54:52;98876.81;;;3.86;66.10
47374;BME280;33123;50.118;10.272;2023-01-25T12:57:25;98875.91;;;3.79;65.78
47374;BME280;33123;50.118;10.272;2023-01-25T13:00:04;98878.72;;;3.69;65.69
47374;BME280;33123;50.118;10.272;2023-01-25T13:02:48;98868.50;;;3.60;66.00
47374;BME280;33123;50.118;10.272;2023-01-25T13:05:24;98856.22;;;3.46;65.79
47374;BME280;33123;50.118;10.272;2023-01-25T13:07:59;98853.22;;;3.34;66.35
47374;BME280;33123;50.118;10.272;2023-01-25T13:10:30;98852.09;;;3.28;66.67
47374;BME280;33123;50.118;10.272;2023-01-25T13:13:01;98851.13;;;3.21;67.25
47374;BME280;33123;50.118;10.272;2023-01-25T13:15:39;98834.50;;;2.91;67.18
47374;BME280;33123;50.118;10.272;2023-01-25T13:18:36;98849.41;;;3.05;67.16
47374;BME280;33123;50.118;10.272;2023-01-25T13:21:08;98844.56;;;3.02;67.54
47374;BME280;33123;50.118;10.272;2023-01-25T13:23:38;98849.13;;;3.00;67.80